Time;durP1;ratioP1;P1;durP2;ratioP2;P2;SDS_P1;SDS_P2;PMS_P1;PMS_P2;Temp;Humidity;BMP_temperature;BMP_pressure;BME280_temperature;BME280_humidity;BME280_pressure;Samples;Min_cycle;Max_cycle;Signal;HPM_P1;HPM_P2
2022/05/18 00:02:00;;;;;;;4.35;3.05;;;;;;;8.47;68.86;99002.94;5050345;28;20032;-61
2022/05/18 00:04:29;;;;;;;5.88;2.83;;;;;;;8.50;68.88;99011.69;5013045;28;20075;-60
2022/05/18 00:06:54;;;;;;;4.63;3.00;;;;;;;8.25;68.96;98987.06;5049284;28;20495;-62
2022/05/18 00:09:20;;;;;;;6.40;3.28;;;;;;;8.36;68.94;99010.16;5054115;28;20033;-61
2022/05/18 00:11:45;;;;;;;6.25;3.70;;;;;;;8.31;69.06;99010.53;5053906;28;20036;-61
2022/05/18 00:14:11;;;;;;;5.10;3.25;;;;;;;8.30;68.93;99019.50;5054358;28;20025;-61
2022/05/18 00:16:36;;;;;;;3.78;2.88;;;;;;;8.26;68.85;99021.56;5054046;28;20468;-61
2022/05/18 00:19:02;;;;;;;4.97;3.10;;;;;;;8.22;69.41;99019.31;5035353;28;20383;-61
2022/05/18 00:21:28;;;;;;;8.57;3.33;;;;;;;8.10;68.91;99002.53;5033775;28;20041;-60
2022/05/18 00:23:53;;;;;;;5.15;3.40;;;;;;;8.14;68.88;99011.94;5049080;28;20033;-60
2022/05/18 00:26:19;;;;;;;5.90;3.20;;;;;;;8.12;68.90;99017.41;5053756;28;20063;-62
2022/05/18 00:28:44;;;;;;;3.65;3.35;;;;;;;8.13;68.69;99036.94;5053602;28;20037;-53
2022/05/18 00:31:13;;;;;;;5.25;3.05;;;;;;;8.14;69.02;99027.94;5051529;28;20033;-61
2022/05/18 00:33:39;;;;;;;9.48;3.10;;;;;;;8.05;68.48;99025.06;5033330;28;20501;-62
2022/05/18 00:36:04;;;;;;;4.82;2.83;;;;;;;8.12;68.47;99030.72;5033456;28;20079;-61
2022/05/18 00:38:30;;;;;;;4.07;3.28;;;;;;;8.14;68.42;99034.13;5033525;28;20037;-62
2022/05/18 00:40:56;;;;;;;4.63;3.25;;;;;;;8.11;68.56;99038.88;5032242;28;20033;-61
2022/05/18 00:43:30;;;;;;;6.85;3.33;;;;;;;8.17;68.22;99044.53;5045983;28;20036;-61
2022/05/18 00:46:01;;;;;;;9.40;3.22;;;;;;;8.10;68.05;99043.34;5053260;28;20037;-60
2022/05/18 00:48:26;;;;;;;4.05;2.78;;;;;;;7.99;68.37;99032.75;5042047;28;20029;-60
2022/05/18 00:50:54;;;;;;;4.97;2.70;;;;;;;8.00;68.15;99050.44;5033251;28;20049;-61
2022/05/18 00:53:25;;;;;;;7.43;2.80;;;;;;;7.99;67.81;99051.41;5033392;28;20428;-61
2022/05/18 00:56:01;;;;;;;3.83;2.45;;;;;;;7.97;68.24;99048.84;5015747;28;20055;-60
2022/05/18 00:58:37;;;;;;;4.10;2.63;;;;;;;7.94;67.98;99057.09;5033297;28;20374;-59
2022/05/18 01:01:03;;;;;;;4.60;2.53;;;;;;;7.87;68.26;99047.94;5034156;28;20053;-59
2022/05/18 01:03:35;;;;;;;3.88;2.35;;;;;;;7.75;68.14;99031.94;5033011;28;20413;-59
2022/05/18 01:06:30;;;;;;;3.45;2.15;;;;;;;7.96;67.99;99059.66;5033415;28;20033;-61
2022/05/18 01:09:00;;;;;;;4.18;2.05;;;;;;;7.90;67.98;99064.50;5026950;28;20098;-61
2022/05/18 01:11:25;;;;;;;3.17;2.03;;;;;;;7.83;67.67;99062.44;5033008;28;20029;-58
2022/05/18 01:13:52;;;;;;;2.45;1.90;;;;;;;7.81;67.78;99075.06;5033093;28;20104;-59
2022/05/18 01:16:19;;;;;;;2.47;2.00;;;;;;;7.80;67.89;99068.03;5031383;28;20155;-54
2022/05/18 01:18:45;;;;;;;5.07;2.13;;;;;;;7.74;67.93;99070.22;5032829;28;20094;-56
2022/05/18 01:21:10;;;;;;;4.88;1.98;;;;;;;7.79;68.24;99077.00;5041569;28;20151;-60
2022/05/18 01:24:02;;;;;;;5.00;1.90;;;;;;;7.93;68.17;99083.88;5052726;28;20068;-61
2022/05/18 01:26:27;;;;;;;3.97;1.95;;;;;;;7.88;67.62;99076.28;5042274;28;20025;-60
2022/05/18 01:28:59;;;;;;;3.05;2.00;;;;;;;7.93;67.51;99081.19;5032576;28;20033;-60
2022/05/18 01:31:41;;;;;;;2.92;1.80;;;;;;;7.90;67.48;99063.66;5014827;28;20025;-57
2022/05/18 01:34:07;;;;;;;3.63;2.10;;;;;;;7.90;66.88;99061.81;5032040;28;20486;-61
2022/05/18 01:36:33;;;;;;;2.58;1.80;;;;;;;8.14;66.52;99092.78;5032319;28;20041;-59
2022/05/18 01:38:59;;;;;;;3.45;1.60;;;;;;;8.23;65.99;99088.50;5032481;28;20033;-59
2022/05/18 01:41:28;;;;;;;1.85;1.45;;;;;;;8.23;65.61;99074.34;5045589;28;20032;-60
2022/05/18 01:43:56;;;;;;;1.77;1.55;;;;;;;8.45;65.11;99100.06;5052277;28;20123;-61
2022/05/18 01:46:22;;;;;;;2.28;1.50;;;;;;;8.32;64.71;99068.22;5051886;28;20048;-60
2022/05/18 01:48:50;;;;;;;4.40;1.40;;;;;;;8.60;64.52;99108.63;5052304;28;20036;-60
2022/05/18 01:51:45;;;;;;;1.77;1.48;;;;;;;8.72;64.18;99110.28;5052552;28;20388;-58
2022/05/18 01:54:12;;;;;;;5.22;1.90;;;;;;;8.83;64.04;99116.50;5038572;28;20037;-59
2022/05/18 01:56:38;;;;;;;3.85;1.58;;;;;;;8.90;63.11;99115.00;5051700;28;20111;-61
2022/05/18 01:59:04;;;;;;;6.63;1.65;;;;;;;9.00;62.90;99115.06;5047387;28;20041;-60
2022/05/18 02:01:29;;;;;;;2.20;1.40;;;;;;;9.06;62.35;99114.56;5052275;28;20036;-61
2022/05/18 02:03:55;;;;;;;2.35;1.67;;;;;;;9.14;62.11;99122.75;5051833;28;20487;-60
2022/05/18 02:06:21;;;;;;;2.53;1.45;;;;;;;9.22;61.87;99135.44;5029951;28;20449;-58
2022/05/18 02:08:47;;;;;;;2.55;1.50;;;;;;;9.30;61.21;99132.94;5032466;28;20476;-60
2022/05/18 02:11:14;;;;;;;1.88;1.20;;;;;;;9.28;60.76;99113.53;5032027;28;20048;-61
2022/05/18 02:13:39;;;;;;;3.58;1.40;;;;;;;9.47;60.27;99136.00;5013992;28;20036;-61
2022/05/18 02:16:05;;;;;;;3.70;1.65;;;;;;;9.57;59.99;99128.03;5031698;28;20385;-60
2022/05/18 02:18:31;;;;;;;2.53;1.25;;;;;;;9.73;59.42;99143.56;5031649;28;20072;-55
2022/05/18 02:20:56;;;;;;;1.60;1.10;;;;;;;9.94;58.79;99137.28;5014120;28;20469;-60
2022/05/18 02:23:22;;;;;;;2.45;1.20;;;;;;;10.17;58.31;99141.41;5045480;28;20115;-59
2022/05/18 02:25:47;;;;;;;1.75;1.20;;;;;;;10.44;57.32;99139.06;5051826;28;20524;-61
2022/05/18 02:28:14;;;;;;;1.75;1.25;;;;;;;10.69;56.75;99145.69;5050738;28;20484;-60
2022/05/18 02:30:39;;;;;;;2.13;1.40;;;;;;;10.85;56.09;99144.25;5051465;28;20032;-59
2022/05/18 02:33:05;;;;;;;1.73;1.20;;;;;;;10.90;55.33;99153.56;5039599;28;20049;-60
2022/05/18 02:35:30;;;;;;;3.83;1.13;;;;;;;10.90;55.63;99155.41;5031093;28;20064;-60
2022/05/18 02:37:56;;;;;;;2.50;1.30;;;;;;;10.82;55.19;99161.47;5038410;28;20029;-61
2022/05/18 02:40:22;;;;;;;2.25;1.10;;;;;;;10.65;55.57;99170.22;5051502;28;20037;-60
2022/05/18 02:42:48;;;;;;;1.67;1.10;;;;;;;10.49;56.14;99171.63;5051293;28;20516;-60
2022/05/18 02:45:13;;;;;;;3.47;1.30;;;;;;;10.20;56.57;99156.31;5051107;28;20033;-60
2022/05/18 02:47:39;;;;;;;2.55;1.30;;;;;;;10.24;56.95;99170.28;5048917;28;20056;-60
2022/05/18 02:50:06;;;;;;;2.72;1.50;;;;;;;10.03;56.61;99157.84;5051000;28;20358;-61
2022/05/18 02:52:31;;;;;;;1.70;1.13;;;;;;;10.16;56.86;99182.53;5051046;28;20037;-60
2022/05/18 02:57:41;;;;;;;5.32;1.50;;;;;;;10.15;56.66;99180.84;5036235;28;20032;-61
2022/05/18 03:00:07;;;;;;;2.78;1.23;;;;;;;10.23;56.56;99195.34;5033322;28;20037;-60
2022/05/18 03:02:33;;;;;;;4.43;1.40;;;;;;;10.34;56.02;99185.38;5050878;28;20028;-60
2022/05/18 03:04:59;;;;;;;1.73;1.00;;;;;;;10.44;56.36;99185.41;5050531;28;20033;-60
2022/05/18 03:07:24;;;;;;;1.25;1.05;;;;;;;10.53;55.79;99189.09;5031136;28;20025;-60
2022/05/18 03:09:50;;;;;;;1.67;1.20;;;;;;;10.58;55.01;99191.34;5031268;28;20036;-60
2022/05/18 03:12:15;;;;;;;3.55;1.10;;;;;;;10.60;55.09;99198.25;5034784;28;20028;-55
2022/05/18 03:14:41;;;;;;;1.83;1.17;;;;;;;10.64;54.51;99196.16;5050696;28;20465;-60
2022/05/18 03:17:06;;;;;;;5.53;1.20;;;;;;;10.65;54.12;99186.28;5049287;28;20029;-59
2022/05/18 03:19:32;;;;;;;1.50;1.00;;;;;;;10.77;53.99;99199.38;5050510;28;20039;-61
2022/05/18 03:24:41;;;;;;;1.38;0.85;;;;;;;11.58;51.87;99175.88;5050656;28;20439;-61
2022/05/18 03:27:07;;;;;;;3.05;0.95;;;;;;;12.52;49.49;99199.97;5050738;28;20104;-60
2022/05/18 03:29:33;;;;;;;2.35;0.98;;;;;;;13.28;47.41;99202.31;5031707;28;20425;-57
2022/05/18 03:31:59;;;;;;;3.55;0.95;;;;;;;13.99;45.17;99199.56;5030522;28;20049;-60
2022/05/18 03:34:24;;;;;;;1.63;0.88;;;;;;;14.57;43.80;99199.75;5031040;28;20124;-58
2022/05/18 03:36:50;;;;;;;3.17;0.70;;;;;;;15.15;41.96;99202.50;5013729;28;20454;-57
2022/05/18 03:39:16;;;;;;;1.33;0.77;;;;;;;15.78;40.57;99211.69;5031812;28;20463;-61
2022/05/18 03:41:43;;;;;;;1.33;0.90;;;;;;;16.32;39.74;99195.81;5034901;28;20029;-59
2022/05/18 03:44:08;;;;;;;3.10;1.05;;;;;;;17.15;37.46;99216.94;5034984;28;20119;-61
2022/05/18 03:46:34;;;;;;;2.03;0.77;;;;;;;17.72;36.12;99212.00;5034909;28;20108;-56
2022/05/18 03:49:00;;;;;;;2.78;0.80;;;;;;;18.22;35.09;99210.41;5034542;28;20029;-60
2022/05/18 03:51:26;;;;;;;2.10;0.65;;;;;;;18.61;33.93;99216.50;5034743;28;20026;-57
2022/05/18 03:53:52;;;;;;;4.57;0.90;;;;;;;18.89;33.52;99223.06;5034741;28;20049;-59
2022/05/18 03:56:18;;;;;;;3.15;0.77;;;;;;;19.46;32.62;99223.16;5043224;28;20031;-56
2022/05/18 03:58:44;;;;;;;3.90;0.90;;;;;;;20.03;31.14;99220.47;5043490;28;20041;-59
2022/05/18 04:01:10;;;;;;;2.08;0.70;;;;;;;20.61;30.17;99219.22;5041629;28;20052;-60
2022/05/18 04:03:41;;;;;;;1.38;0.75;;;;;;;21.28;29.63;99226.69;5054103;28;20033;-61
2022/05/18 04:06:08;;;;;;;5.30;1.02;;;;;;;21.76;28.47;99225.66;5036276;28;20469;-61
2022/05/18 04:08:34;;;;;;;3.03;1.00;;;;;;;22.55;26.93;99220.19;5054030;28;20082;-60
2022/05/18 04:10:59;;;;;;;1.35;0.88;;;;;;;23.12;26.28;99226.75;5054062;28;20036;-60
2022/05/18 04:13:25;;;;;;;3.45;0.88;;;;;;;23.88;25.10;99229.50;5054302;28;20058;-60
2022/05/18 04:15:51;;;;;;;1.17;1.00;;;;;;;24.58;24.19;99233.75;5053574;28;20443;-62
2022/05/18 04:18:17;;;;;;;1.20;0.70;;;;;;;24.93;23.16;99233.06;5048433;28;20033;-61
2022/05/18 04:20:43;;;;;;;2.97;1.30;;;;;;;25.14;22.89;99251.97;5033888;28;20030;-61
2022/05/18 04:23:11;;;;;;;2.40;0.98;;;;;;;25.64;22.45;99240.63;5033949;28;20029;-62
2022/05/18 04:25:37;;;;;;;2.88;1.23;;;;;;;26.24;21.76;99248.84;5040458;28;20025;-58
2022/05/18 04:28:03;;;;;;;2.08;0.73;;;;;;;26.63;20.83;99245.50;5042024;28;20211;-61
2022/05/18 04:30:29;;;;;;;2.45;1.05;;;;;;;26.94;20.22;99246.13;5041447;28;20028;-55
2022/05/18 04:32:55;;;;;;;4.00;1.13;;;;;;;27.09;20.10;99220.84;5025585;28;20041;-56
2022/05/18 04:35:24;;;;;;;1.33;1.20;;;;;;;27.98;19.70;99248.66;5039380;28;20365;-59
2022/05/18 04:37:50;;;;;;;1.92;1.02;;;;;;;28.41;18.56;99257.22;5040516;28;20033;-59
2022/05/18 04:40:16;;;;;;;2.08;1.35;;;;;;;29.13;18.14;99256.38;5042821;28;20389;-60
2022/05/18 04:42:42;;;;;;;1.50;1.10;;;;;;;29.67;17.38;99262.94;5040934;28;20111;-58
2022/05/18 04:45:11;;;;;;;1.05;0.95;;;;;;;30.13;17.67;99267.94;5025014;28;20736;-59
2022/05/18 04:47:36;;;;;;;1.25;1.15;;;;;;;30.05;16.78;99261.84;5039276;28;20021;-58
2022/05/18 04:50:02;;;;;;;2.03;1.30;;;;;;;29.80;16.73;99270.75;5042052;28;20088;-57
2022/05/18 04:52:29;;;;;;;2.85;1.13;;;;;;;30.01;16.92;99276.41;5040265;28;20522;-58
2022/05/18 04:54:55;;;;;;;2.10;0.80;;;;;;;29.97;16.75;99278.03;5041617;28;20473;-59
2022/05/18 04:57:20;;;;;;;2.35;0.90;;;;;;;29.48;16.80;99239.34;5041744;28;20033;-58
2022/05/18 04:59:48;;;;;;;4.43;2.35;;;;;;;29.78;16.78;99282.06;5041488;28;20388;-57
2022/05/18 05:02:13;;;;;;;2.88;1.60;;;;;;;29.62;16.65;99274.75;5042721;28;20116;-57
2022/05/18 05:04:39;;;;;;;3.15;1.40;;;;;;;30.25;16.30;99256.69;5041243;28;20096;-58
2022/05/18 05:07:04;;;;;;;4.47;1.27;;;;;;;31.63;15.41;99280.25;5041721;28;20075;-58
2022/05/18 05:09:30;;;;;;;2.40;1.48;;;;;;;32.04;14.31;99287.69;5042969;28;20018;-60
2022/05/18 05:11:56;;;;;;;2.78;1.30;;;;;;;32.20;14.34;99291.25;5041452;28;20021;-66
2022/05/18 05:14:22;;;;;;;3.80;2.53;;;;;;;33.06;13.92;99281.22;5033868;28;20025;-66
2022/05/18 05:16:48;;;;;;;1.55;1.33;;;;;;;33.92;13.13;99282.78;5040743;28;20053;-74
2022/05/18 05:19:14;;;;;;;2.53;1.20;;;;;;;34.66;12.15;99289.19;5042674;28;20039;-63
2022/05/18 05:21:42;;;;;;;2.05;1.30;;;;;;;35.34;12.03;99290.72;5041326;28;20454;-62
2022/05/18 05:24:12;;;;;;;1.33;1.23;;;;;;;36.00;12.00;99292.66;5041021;28;20092;-65
2022/05/18 05:26:38;;;;;;;4.18;1.27;;;;;;;35.36;11.55;99279.31;5043107;28;20405;-61
2022/05/18 05:29:04;;;;;;;2.40;1.20;;;;;;;34.64;12.07;99270.88;5039848;28;20052;-61
2022/05/18 05:31:30;;;;;;;3.92;1.42;;;;;;;34.80;11.95;99283.72;5042248;28;20113;-60
2022/05/18 05:33:57;;;;;;;3.15;1.30;;;;;;;34.16;12.56;99290.31;5040503;28;20140;-61
2022/05/18 05:36:22;;;;;;;3.67;1.38;;;;;;;33.73;13.13;99296.53;5041536;28;20033;-62
2022/05/18 05:38:48;;;;;;;2.22;1.15;;;;;;;34.37;12.48;99295.66;5041969;28;20857;-64
2022/05/18 05:41:13;;;;;;;4.70;1.40;;;;;;;35.31;12.08;99290.50;5020053;28;20108;-62
2022/05/18 05:43:40;;;;;;;2.05;1.58;;;;;;;36.16;10.95;99284.06;5038245;28;20104;-62
2022/05/18 05:46:09;;;;;;;2.72;1.15;;;;;;;35.84;11.47;99296.91;5034089;28;20028;-60
2022/05/18 05:48:35;;;;;;;1.63;1.35;;;;;;;35.78;11.35;99290.59;5052443;28;20087;-60
2022/05/18 05:51:02;;;;;;;2.10;1.27;;;;;;;35.37;11.24;99294.88;5042660;28;20083;-61
2022/05/18 05:53:28;;;;;;;3.05;1.33;;;;;;;35.68;11.12;99296.31;5042709;28;20037;-60
2022/05/18 05:55:54;;;;;;;1.60;1.30;;;;;;;36.97;10.11;99293.81;5033485;28;20033;-63
2022/05/18 05:58:21;;;;;;;4.85;1.20;;;;;;;38.17;9.75;99286.94;5034700;28;20088;-64
2022/05/18 06:00:48;;;;;;;3.17;1.13;;;;;;;38.91;9.11;99303.31;5032841;28;20142;-60
2022/05/18 06:03:15;;;;;;;2.17;1.30;;;;;;;39.39;8.42;99301.50;5032411;28;20037;-61
2022/05/18 06:05:41;;;;;;;1.35;1.05;;;;;;;39.28;8.04;99298.19;5033583;28;20188;-61
2022/05/18 06:08:07;;;;;;;2.45;1.10;;;;;;;38.38;8.56;99294.75;5051303;28;20108;-61
2022/05/18 06:10:34;;;;;;;3.17;1.20;;;;;;;38.56;8.55;99297.63;5052010;28;20082;-61
2022/05/18 06:13:05;;;;;;;1.85;1.25;;;;;;;39.58;8.63;99292.78;5051830;28;20037;-62
2022/05/18 06:15:30;;;;;;;5.43;1.30;;;;;;;39.39;8.04;99300.72;5051972;28;20052;-61
2022/05/18 06:17:56;;;;;;;3.05;1.20;;;;;;;39.46;7.74;99284.22;5045481;28;20045;-61
2022/05/18 06:20:21;;;;;;;2.35;1.10;;;;;;;40.13;7.57;99290.31;5031336;28;20033;-61
2022/05/18 06:22:47;;;;;;;3.15;1.35;;;;;;;40.55;7.20;99288.81;5045178;28;20112;-61
2022/05/18 06:25:19;;;;;;;2.25;1.00;;;;;;;40.42;7.00;99299.94;5065375;28;20368;-63
2022/05/18 06:27:44;;;;;;;1.63;0.90;;;;;;;40.98;6.66;99301.72;5064632;28;20052;-59
2022/05/18 06:30:12;;;;;;;5.40;1.00;;;;;;;40.75;6.68;99316.09;5068159;28;20118;-59
2022/05/18 06:32:37;;;;;;;2.20;0.90;;;;;;;39.57;6.89;99304.31;5067937;28;20051;-58
2022/05/18 06:35:04;;;;;;;1.15;0.75;;;;;;;38.85;7.59;99307.41;5068206;28;20020;-57
2022/05/18 06:37:29;;;;;;;2.67;0.60;;;;;;;40.04;7.01;99293.16;5067526;28;20171;-59
2022/05/18 06:39:55;;;;;;;1.45;0.93;;;;;;;40.69;6.27;99288.56;5067235;28;20056;-61
2022/05/18 06:42:21;;;;;;;1.60;0.90;;;;;;;41.17;6.48;99289.22;5066675;28;20091;-60
2022/05/18 06:44:47;;;;;;;2.33;1.20;;;;;;;41.81;5.90;99291.91;5059678;28;20061;-62
2022/05/18 06:47:13;;;;;;;1.30;0.85;;;;;;;42.34;5.94;99280.88;5062785;28;20420;-62
2022/05/18 06:49:40;;;;;;;4.28;0.90;;;;;;;43.23;5.25;99314.16;5057615;28;20401;-63
2022/05/18 06:52:07;;;;;;;1.52;0.82;;;;;;;42.81;5.27;99320.94;5051462;28;20086;-61
2022/05/18 06:54:32;;;;;;;2.92;1.00;;;;;;;42.77;5.53;99308.75;5047648;28;20083;-58
2022/05/18 06:56:58;;;;;;;4.85;1.10;;;;;;;43.86;4.84;99299.44;5061684;28;20044;-61
2022/05/18 06:59:23;;;;;;;0.98;0.88;;;;;;;43.03;5.09;99314.81;5066446;28;20033;-61
2022/05/18 07:01:50;;;;;;;3.55;0.90;;;;;;;39.33;6.96;99319.63;5047929;28;20135;-62
2022/05/18 07:04:15;;;;;;;2.60;0.82;;;;;;;37.20;7.57;99310.63;5047462;28;20037;-61
2022/05/18 07:06:43;;;;;;;2.05;0.73;;;;;;;34.45;9.30;99326.38;5053384;28;20055;-62
2022/05/18 07:09:14;;;;;;;0.95;0.60;;;;;;;32.18;10.95;99329.47;5057250;28;20443;-61
2022/05/18 07:11:41;;;;;;;1.75;1.08;;;;;;;29.58;12.63;99326.84;5066599;28;20524;-61
2022/05/18 07:14:07;;;;;;;1.55;0.63;;;;;;;30.15;12.73;99316.28;5066973;28;20024;-61
2022/05/18 07:16:33;;;;;;;3.10;0.85;;;;;;;31.42;11.69;99320.09;5066141;28;20043;-61
2022/05/18 07:18:59;;;;;;;1.13;0.80;;;;;;;34.06;9.97;99317.06;5049141;28;20055;-62
2022/05/18 07:21:25;;;;;;;2.17;0.70;;;;;;;36.60;8.43;99315.25;5062623;28;20420;-60
2022/05/18 07:23:53;;;;;;;1.05;0.70;;;;;;;38.92;6.98;99324.53;5051039;28;20155;-62
2022/05/18 07:26:19;;;;;;;0.70;0.70;;;;;;;39.92;6.54;99317.44;5058666;28;20048;-62
2022/05/18 07:28:45;;;;;;;0.70;0.50;;;;;;;39.08;6.72;99318.47;5052063;28;20021;-64
2022/05/18 07:31:12;;;;;;;1.60;0.70;;;;;;;36.19;7.99;99322.44;5049156;28;20041;-66
2022/05/18 07:33:37;;;;;;;1.80;0.60;;;;;;;34.16;9.32;99302.25;5066632;28;20128;-61
2022/05/18 07:36:05;;;;;;;1.00;0.52;;;;;;;35.01;8.92;99318.50;5057398;28;20036;-62
2022/05/18 07:38:32;;;;;;;2.45;0.80;;;;;;;35.51;8.59;99314.44;5041328;28;20484;-62
2022/05/18 07:40:58;;;;;;;2.28;0.73;;;;;;;33.70;9.79;99322.94;5045407;28;20028;-61
2022/05/18 07:43:24;;;;;;;4.88;0.80;;;;;;;35.24;8.94;99312.31;5052736;28;20063;-63
2022/05/18 07:45:52;;;;;;;0.70;0.70;;;;;;;36.45;8.64;99319.16;5053149;28;20025;-64
2022/05/18 07:48:19;;;;;;;1.65;0.80;;;;;;;37.14;7.76;99321.06;5053252;28;20416;-60
2022/05/18 07:50:45;;;;;;;1.50;0.73;;;;;;;37.29;7.31;99300.34;5034062;28;20358;-62
2022/05/18 07:53:11;;;;;;;1.95;0.85;;;;;;;37.56;7.25;99311.75;5042300;28;20040;-64
2022/05/18 07:55:37;;;;;;;1.10;0.70;;;;;;;38.33;7.14;99317.25;5051713;28;20072;-61
2022/05/18 07:58:04;;;;;;;0.98;0.77;;;;;;;38.97;6.68;99332.78;5051818;28;20033;-61
2022/05/18 08:00:30;;;;;;;1.02;0.60;;;;;;;38.93;6.83;99326.19;5042703;28;20041;-61
2022/05/18 08:02:56;;;;;;;1.27;0.60;;;;;;;39.11;6.33;99335.41;5032714;28;20038;-63
2022/05/18 08:05:21;;;;;;;1.98;0.70;;;;;;;38.58;6.55;99332.50;5033012;28;20125;-63
2022/05/18 08:07:47;;;;;;;0.75;0.70;;;;;;;38.51;7.27;99331.31;5032806;28;20073;-61
2022/05/18 08:15:48;;;;;;;5.07;0.98;;;;;;;35.26;9.25;99341.50;5043902;28;20092;-60
2022/05/18 08:18:15;;;;;;;1.30;0.60;;;;;;;32.32;10.68;99338.06;5042414;28;20104;-62
2022/05/18 08:20:41;;;;;;;1.58;0.68;;;;;;;30.06;12.44;99337.19;5039158;28;20036;-60
2022/05/18 08:23:07;;;;;;;2.03;0.50;;;;;;;27.98;14.12;99352.38;5035553;28;20041;-60
2022/05/18 08:25:34;;;;;;;2.42;0.60;;;;;;;26.34;15.09;99342.34;5032336;28;20144;-60
2022/05/18 08:28:00;;;;;;;3.17;0.75;;;;;;;24.70;17.02;99346.03;5049326;28;20116;-61
2022/05/18 08:30:28;;;;;;;1.08;0.50;;;;;;;22.99;19.15;99340.47;5051693;28;20136;-61
2022/05/18 08:32:53;;;;;;;1.05;0.73;;;;;;;22.00;20.38;99337.78;5040778;28;20045;-62
2022/05/18 08:35:19;;;;;;;1.17;0.90;;;;;;;21.49;21.46;99350.94;5031040;28;20026;-60
2022/05/18 08:37:47;;;;;;;1.73;0.70;;;;;;;21.16;22.12;99368.00;5037488;28;20079;-60
2022/05/18 08:40:28;;;;;;;0.90;0.60;;;;;;;20.82;21.20;99331.69;5052320;28;20063;-61
2022/05/18 08:43:07;;;;;;;1.48;0.70;;;;;;;20.40;23.10;99364.31;5046929;28;20542;-72
2022/05/18 08:45:37;;;;;;;1.85;0.77;;;;;;;20.07;23.49;99355.69;5049327;28;20035;-68
2022/05/18 08:48:24;;;;;;;1.08;0.60;;;;;;;20.32;22.61;99357.13;5048663;28;20060;-57
2022/05/18 08:50:52;;;;;;;1.23;0.70;;;;;;;20.20;22.96;99360.38;5037625;28;20523;-67
2022/05/18 08:53:55;;;;;;;1.17;0.50;;;;;;;19.96;23.61;99355.41;5031678;28;20547;-65
2022/05/18 08:56:28;;;;;;;0.75;0.50;;;;;;;19.45;24.52;99365.38;5031588;28;20030;-61
2022/05/18 08:58:55;;;;;;;2.17;0.73;;;;;;;19.12;24.22;99357.72;5050219;28;20095;-65
2022/05/18 09:01:20;;;;;;;0.50;0.50;;;;;;;18.99;25.32;99351.09;5035284;28;20043;-61
2022/05/18 09:03:54;;;;;;;1.92;0.82;;;;;;;19.01;24.94;99359.88;5030608;28;20029;-65
2022/05/18 09:06:34;;;;;;;1.45;0.80;;;;;;;19.08;25.00;99357.25;5038359;28;20116;-62
2022/05/18 09:11:59;;;;;;;2.25;0.73;;;;;;;18.71;25.60;99362.63;5035384;28;20028;-60
2022/05/18 09:14:30;;;;;;;3.08;0.70;;;;;;;18.71;25.92;99356.38;5051013;28;20357;-61
2022/05/18 09:17:09;;;;;;;0.77;0.47;;;;;;;18.69;25.73;99359.25;5045703;28;20368;-53
2022/05/18 09:19:53;;;;;;;1.45;0.80;;;;;;;18.43;25.62;99338.03;5036391;28;20078;-58
2022/05/18 09:22:27;;;;;;;0.73;0.57;;;;;;;18.34;26.48;99351.69;5049617;28;20043;-55
2022/05/18 09:25:26;;;;;;;2.78;0.70;;;;;;;18.49;26.13;99343.56;5050878;28;20064;-55
2022/05/18 09:28:10;;;;;;;3.30;0.73;;;;;;;18.53;25.78;99354.88;5050815;28;20060;-57
2022/05/18 09:30:51;;;;;;;2.60;0.60;;;;;;;18.43;26.36;99352.44;5051118;28;20087;-56
2022/05/18 09:33:31;;;;;;;1.85;0.70;;;;;;;18.36;26.24;99343.38;5045220;28;20037;-54
2022/05/18 09:35:56;;;;;;;2.15;0.50;;;;;;;18.11;26.71;99350.94;5051247;28;20037;-60
2022/05/18 09:38:46;;;;;;;0.93;0.50;;;;;;;17.77;26.11;99286.22;5048935;28;20082;-54
2022/05/18 09:41:16;;;;;;;1.60;0.70;;;;;;;17.99;26.93;99343.22;5050869;28;20422;-62
2022/05/18 09:43:51;;;;;;;2.83;0.70;;;;;;;18.05;26.87;99352.50;5044649;28;20032;-59
2022/05/18 09:46:22;;;;;;;1.42;0.70;;;;;;;18.06;27.91;99354.19;5034940;28;20033;-52
2022/05/18 09:49:14;;;;;;;3.28;0.90;;;;;;;18.10;27.64;99350.09;5030824;28;20491;-56
2022/05/18 09:51:39;;;;;;;0.93;0.65;;;;;;;18.08;27.49;99335.88;5031216;28;20041;-53
2022/05/18 09:54:06;;;;;;;0.80;0.68;;;;;;;18.22;26.96;99336.94;5039205;28;20116;-53
2022/05/18 09:56:46;;;;;;;3.15;0.60;;;;;;;18.34;26.64;99353.56;5041878;28;20068;-57
2022/05/18 09:59:20;;;;;;;2.50;0.75;;;;;;;18.24;27.53;99353.84;5038161;28;20084;-57
2022/05/18 10:07:30;;;;;;;4.72;0.90;;;;;;;18.14;27.50;99339.72;5040574;28;20029;-58
2022/05/18 10:10:09;;;;;;;1.35;0.80;;;;;;;18.26;27.57;99340.09;5039637;28;20037;-56
2022/05/18 10:12:40;;;;;;;3.25;0.88;;;;;;;18.40;28.03;99346.53;5045607;28;20025;-54
2022/05/18 10:15:20;;;;;;;2.28;0.77;;;;;;;18.50;27.03;99353.38;5050577;28;20048;-52
2022/05/18 10:17:51;;;;;;;1.25;0.90;;;;;;;18.41;27.14;99357.22;5043602;28;20057;-59
2022/05/18 10:20:28;;;;;;;0.98;0.88;;;;;;;18.53;27.79;99359.44;5036479;28;20037;-61
2022/05/18 10:22:55;;;;;;;2.15;0.90;;;;;;;18.55;27.44;99347.41;5039855;28;20037;-59
2022/05/18 10:25:39;;;;;;;2.33;0.90;;;;;;;18.61;27.42;99345.81;5030445;28;20448;-56
2022/05/18 10:28:28;;;;;;;1.60;0.88;;;;;;;18.76;27.50;99354.75;5037611;28;20113;-56
2022/05/18 10:31:04;;;;;;;2.40;0.90;;;;;;;18.58;27.66;99351.63;5049745;28;20025;-60
2022/05/18 10:33:38;;;;;;;3.70;1.00;;;;;;;18.47;27.57;99361.06;5050728;28;20033;-56
2022/05/18 10:36:28;;;;;;;3.22;1.17;;;;;;;18.61;27.44;99359.38;5050501;28;20033;-56
2022/05/18 10:38:57;;;;;;;1.88;0.95;;;;;;;18.76;27.22;99357.47;5034326;28;20046;-61
2022/05/18 10:41:45;;;;;;;0.85;0.85;;;;;;;19.29;26.64;99337.47;5030729;28;20042;-59
2022/05/18 10:44:20;;;;;;;3.42;0.93;;;;;;;19.69;25.96;99357.88;5044929;28;20470;-56
2022/05/18 10:46:47;;;;;;;1.17;0.90;;;;;;;19.61;25.61;99354.25;5030336;28;20034;-54
2022/05/18 10:49:40;;;;;;;2.70;0.80;;;;;;;19.56;26.14;99347.72;5030383;28;20080;-55
2022/05/18 10:52:14;;;;;;;2.45;0.63;;;;;;;19.24;26.22;99353.47;5030202;28;20069;-55
2022/05/18 10:54:51;;;;;;;2.03;0.88;;;;;;;19.10;26.85;99343.50;5046575;28;20030;-65
2022/05/18 10:57:21;;;;;;;2.40;0.70;;;;;;;19.35;26.62;99357.53;5046298;28;20102;-55
2022/05/18 11:00:10;;;;;;;3.97;1.13;;;;;;;19.56;26.04;99324.16;5041376;28;20033;-57
2022/05/18 11:02:51;;;;;;;0.93;0.80;;;;;;;19.82;25.82;99363.44;5042652;28;20061;-55
2022/05/18 11:05:34;;;;;;;1.23;0.90;;;;;;;19.63;26.21;99354.91;5048625;28;20376;-54
2022/05/18 11:07:59;;;;;;;1.92;0.75;;;;;;;19.46;26.31;99353.47;5047002;28;20033;-53
2022/05/18 11:10:36;;;;;;;2.13;0.80;;;;;;;19.63;25.77;99349.47;5042505;28;20492;-52
2022/05/18 11:13:15;;;;;;;3.63;0.95;;;;;;;20.04;26.43;99360.72;5043969;28;20032;-56
2022/05/18 11:15:51;;;;;;;4.88;0.80;;;;;;;20.32;25.13;99348.97;5043264;28;20045;-57
2022/05/18 11:18:25;;;;;;;2.45;0.80;;;;;;;20.33;24.81;99353.38;5032711;28;20393;-57
2022/05/18 11:21:27;;;;;;;2.50;0.77;;;;;;;20.26;24.58;99358.75;5033861;28;20030;-53
2022/05/18 11:24:14;;;;;;;1.88;0.75;;;;;;;20.30;24.89;99359.22;5033950;28;20064;-57
2022/05/18 11:27:10;;;;;;;4.05;0.80;;;;;;;20.38;24.73;99356.34;5034282;28;20080;-55
2022/05/18 11:30:03;;;;;;;3.80;0.88;;;;;;;20.32;24.88;99362.56;5048985;28;20061;-59
2022/05/18 11:33:22;;;;;;;2.30;0.80;;;;;;;20.26;25.13;99356.03;5054079;28;20503;-56
2022/05/18 11:36:05;;;;;;;2.90;0.90;;;;;;;20.30;25.20;99335.56;5027452;28;20048;-56
2022/05/18 11:38:33;;;;;;;1.15;0.90;;;;;;;20.40;24.73;99362.41;5052254;28;20408;-56
2022/05/18 11:41:08;;;;;;;2.10;0.80;;;;;;;20.27;24.92;99354.19;5052918;28;20029;-52
2022/05/18 11:43:59;;;;;;;1.30;0.88;;;;;;;20.51;24.58;99359.13;5052686;28;20028;-55
2022/05/18 11:46:28;;;;;;;2.50;0.90;;;;;;;20.35;24.44;99357.56;5041963;28;20489;-58
2022/05/18 11:49:07;;;;;;;1.92;1.00;;;;;;;20.31;24.98;99356.28;5041111;28;20536;-56
2022/05/18 11:51:40;;;;;;;1.42;0.80;;;;;;;20.26;25.05;99358.75;5052131;28;20029;-54
2022/05/18 11:54:23;;;;;;;3.10;0.77;;;;;;;19.94;25.04;99295.84;5053108;28;20124;-60
2022/05/18 11:57:11;;;;;;;3.05;0.95;;;;;;;20.39;24.86;99354.47;5045297;28;20358;-60
2022/05/18 12:00:16;;;;;;;2.22;1.33;;;;;;;20.60;24.88;99364.41;5041667;28;20119;-56
2022/05/18 12:02:55;;;;;;;0.75;0.68;;;;;;;20.59;24.02;99362.72;5033276;28;20191;-58
2022/05/18 12:05:42;;;;;;;1.85;0.95;;;;;;;20.60;23.37;99358.97;5031505;28;20117;-59
2022/05/18 12:08:26;;;;;;;3.47;0.88;;;;;;;20.24;23.12;99363.56;5049037;28;20037;-55
2022/05/18 12:11:10;;;;;;;3.75;0.90;;;;;;;20.15;23.56;99360.16;5050572;28;20049;-61